sensor_id;sensor_type;location;lat;lon;timestamp;temperature;humidity
36416;DHT22;22447;44.530;18.620;2023-12-20T00:01:27;0.50;99.90
36416;DHT22;22447;44.530;18.620;2023-12-20T00:03:53;0.40;99.90
36416;DHT22;22447;44.530;18.620;2023-12-20T00:06:19;0.30;99.90
36416;DHT22;22447;44.530;18.620;2023-12-20T00:08:45;0.30;99.90
36416;DHT22;22447;44.530;18.620;2023-12-20T00:11:11;0.30;99.90
36416;DHT22;22447;44.530;18.620;2023-12-20T00:13:37;0.30;99.90
36416;DHT22;22447;44.530;18.620;2023-12-20T00:16:03;0.40;99.90
36416;DHT22;22447;44.530;18.620;2023-12-20T00:18:29;0.40;99.90
36416;DHT22;22447;44.530;18.620;2023-12-20T00:20:55;0.30;99.90
36416;DHT22;22447;44.530;18.620;2023-12-20T00:23:21;0.20;99.90
36416;DHT22;22447;44.530;18.620;2023-12-20T00:25:48;0.10;99.90
36416;DHT22;22447;44.530;18.620;2023-12-20T00:28:14;0.10;99.90
36416;DHT22;22447;44.530;18.620;2023-12-20T00:30:40;0.10;99.90
36416;DHT22;22447;44.530;18.620;2023-12-20T00:33:06;0.20;99.90
36416;DHT22;22447;44.530;18.620;2023-12-20T00:35:32;0.10;99.90
36416;DHT22;22447;44.530;18.620;2023-12-20T00:37:58;0.10;99.90
36416;DHT22;22447;44.530;18.620;2023-12-20T00:40:24;0.00;99.90
36416;DHT22;22447;44.530;18.620;2023-12-20T00:42:50;0.00;99.90
36416;DHT22;22447;44.530;18.620;2023-12-20T00:45:16;-0.10;99.90
36416;DHT22;22447;44.530;18.620;2023-12-20T00:47:42;-0.10;99.90
36416;DHT22;22447;44.530;18.620;2023-12-20T00:50:08;-0.10;99.90
36416;DHT22;22447;44.530;18.620;2023-12-20T00:52:34;-0.20;99.90
36416;DHT22;22447;44.530;18.620;2023-12-20T00:55:00;-0.30;99.90
36416;DHT22;22447;44.530;18.620;2023-12-20T00:57:26;-0.40;99.90
36416;DHT22;22447;44.530;18.620;2023-12-20T00:59:52;-0.30;99.90
36416;DHT22;22447;44.530;18.620;2023-12-20T01:02:18;-0.20;99.90
36416;DHT22;22447;44.530;18.620;2023-12-20T01:04:44;-0.30;99.90
36416;DHT22;22447;44.530;18.620;2023-12-20T01:07:10;-0.40;99.90
36416;DHT22;22447;44.530;18.620;2023-12-20T01:09:36;-0.40;99.90
36416;DHT22;22447;44.530;18.620;2023-12-20T01:12:02;-0.50;99.90
36416;DHT22;22447;44.530;18.620;2023-12-20T01:14:28;-0.40;99.90
36416;DHT22;22447;44.530;18.620;2023-12-20T01:16:54;-0.50;99.90
36416;DHT22;22447;44.530;18.620;2023-12-20T01:19:19;-0.40;99.90
36416;DHT22;22447;44.530;18.620;2023-12-20T01:21:45;-0.40;99.90
36416;DHT22;22447;44.530;18.620;2023-12-20T01:24:11;-0.30;99.90
36416;DHT22;22447;44.530;18.620;2023-12-20T01:26:37;-0.30;99.90
36416;DHT22;22447;44.530;18.620;2023-12-20T01:29:03;-0.30;99.90
36416;DHT22;22447;44.530;18.620;2023-12-20T01:31:28;-0.30;99.90
36416;DHT22;22447;44.530;18.620;2023-12-20T01:33:54;-0.30;99.90
36416;DHT22;22447;44.530;18.620;2023-12-20T01:36:20;-0.40;99.90
36416;DHT22;22447;44.530;18.620;2023-12-20T01:38:46;-0.50;99.90
36416;DHT22;22447;44.530;18.620;2023-12-20T01:41:12;-0.50;99.90
36416;DHT22;22447;44.530;18.620;2023-12-20T01:43:37;-0.40;99.90
36416;DHT22;22447;44.530;18.620;2023-12-20T01:46:04;-0.50;99.90
36416;DHT22;22447;44.530;18.620;2023-12-20T01:48:31;-0.50;99.90
36416;DHT22;22447;44.530;18.620;2023-12-20T01:51:00;-0.50;99.90
36416;DHT22;22447;44.530;18.620;2023-12-20T01:53:27;-0.40;99.90
36416;DHT22;22447;44.530;18.620;2023-12-20T01:55:55;-0.50;99.90
36416;DHT22;22447;44.530;18.620;2023-12-20T01:58:23;-0.50;99.90
36416;DHT22;22447;44.530;18.620;2023-12-20T02:00:49;-0.50;99.90
36416;DHT22;22447;44.530;18.620;2023-12-20T02:03:15;-0.50;99.90
36416;DHT22;22447;44.530;18.620;2023-12-20T02:05:42;-0.60;99.90
36416;DHT22;22447;44.530;18.620;2023-12-20T02:08:09;-0.70;99.90
36416;DHT22;22447;44.530;18.620;2023-12-20T02:10:35;-0.70;99.90
36416;DHT22;22447;44.530;18.620;2023-12-20T02:13:00;-0.70;99.90
36416;DHT22;22447;44.530;18.620;2023-12-20T02:15:26;-0.70;99.90
36416;DHT22;22447;44.530;18.620;2023-12-20T02:17:52;-0.80;99.90
36416;DHT22;22447;44.530;18.620;2023-12-20T02:20:19;-0.80;99.90
36416;DHT22;22447;44.530;18.620;2023-12-20T02:22:45;-0.70;99.90
36416;DHT22;22447;44.530;18.620;2023-12-20T02:25:11;-0.80;99.90
36416;DHT22;22447;44.530;18.620;2023-12-20T02:27:36;-0.80;99.90
36416;DHT22;22447;44.530;18.620;2023-12-20T02:30:03;-0.80;99.90
36416;DHT22;22447;44.530;18.620;2023-12-20T02:32:29;-0.80;99.90
36416;DHT22;22447;44.530;18.620;2023-12-20T02:34:55;-0.80;99.90
36416;DHT22;22447;44.530;18.620;2023-12-20T02:37:21;-0.90;99.90
36416;DHT22;22447;44.530;18.620;2023-12-20T02:39:47;-1.00;99.90
36416;DHT22;22447;44.530;18.620;2023-12-20T02:42:13;-1.00;99.90
36416;DHT22;22447;44.530;18.620;2023-12-20T02:44:39;-1.10;99.90
36416;DHT22;22447;44.530;18.620;2023-12-20T02:47:04;-1.20;99.90
36416;DHT22;22447;44.530;18.620;2023-12-20T02:49:30;-1.20;99.90
36416;DHT22;22447;44.530;18.620;2023-12-20T02:51:56;-1.10;99.90
36416;DHT22;22447;44.530;18.620;2023-12-20T02:54:22;-1.10;99.90
36416;DHT22;22447;44.530;18.620;2023-12-20T02:56:48;-1.10;99.90
36416;DHT22;22447;44.530;18.620;2023-12-20T02:59:14;-1.20;99.90
36416;DHT22;22447;44.530;18.620;2023-12-20T03:01:46;-1.10;99.90
36416;DHT22;22447;44.530;18.620;2023-12-20T03:04:12;-1.00;99.90
36416;DHT22;22447;44.530;18.620;2023-12-20T03:06:38;-0.90;99.90
36416;DHT22;22447;44.530;18.620;2023-12-20T03:09:05;-0.80;99.90
36416;DHT22;22447;44.530;18.620;2023-12-20T03:11:31;-0.70;99.90
36416;DHT22;22447;44.530;18.620;2023-12-20T03:13:57;-0.70;99.90
36416;DHT22;22447;44.530;18.620;2023-12-20T03:16:23;-0.70;99.90
36416;DHT22;22447;44.530;18.620;2023-12-20T03:18:49;-0.90;99.90
36416;DHT22;22447;44.530;18.620;2023-12-20T03:21:15;-1.10;99.90
36416;DHT22;22447;44.530;18.620;2023-12-20T03:23:41;-1.10;99.90
36416;DHT22;22447;44.530;18.620;2023-12-20T03:26:08;-1.10;99.90
36416;DHT22;22447;44.530;18.620;2023-12-20T03:28:34;-1.30;99.90
36416;DHT22;22447;44.530;18.620;2023-12-20T03:31:01;-1.20;99.90
36416;DHT22;22447;44.530;18.620;2023-12-20T03:33:28;-1.30;99.90
36416;DHT22;22447;44.530;18.620;2023-12-20T03:35:54;-1.30;99.90
36416;DHT22;22447;44.530;18.620;2023-12-20T03:38:21;-1.30;99.90
36416;DHT22;22447;44.530;18.620;2023-12-20T03:40:47;-1.20;99.90
36416;DHT22;22447;44.530;18.620;2023-12-20T03:43:13;-1.20;99.90
36416;DHT22;22447;44.530;18.620;2023-12-20T03:45:39;-1.20;99.90
36416;DHT22;22447;44.530;18.620;2023-12-20T03:48:05;-1.30;99.90
36416;DHT22;22447;44.530;18.620;2023-12-20T03:50:31;-1.30;99.90
36416;DHT22;22447;44.530;18.620;2023-12-20T03:52:57;-1.20;99.90
36416;DHT22;22447;44.530;18.620;2023-12-20T03:55:23;-1.10;99.90
36416;DHT22;22447;44.530;18.620;2023-12-20T03:57:48;-1.20;99.90
36416;DHT22;22447;44.530;18.620;2023-12-20T04:00:14;-1.30;99.90
36416;DHT22;22447;44.530;18.620;2023-12-20T04:02:41;-1.30;99.90
36416;DHT22;22447;44.530;18.620;2023-12-20T04:05:09;-1.30;99.90
36416;DHT22;22447;44.530;18.620;2023-12-20T04:07:35;-1.30;99.90
36416;DHT22;22447;44.530;18.620;2023-12-20T04:10:02;-1.40;99.90
36416;DHT22;22447;44.530;18.620;2023-12-20T04:12:29;-1.40;99.90
36416;DHT22;22447;44.530;18.620;2023-12-20T04:14:56;-1.40;99.90
36416;DHT22;22447;44.530;18.620;2023-12-20T04:17:22;-1.40;99.90
36416;DHT22;22447;44.530;18.620;2023-12-20T04:19:49;-1.40;99.90
36416;DHT22;22447;44.530;18.620;2023-12-20T04:22:15;-1.40;99.90
36416;DHT22;22447;44.530;18.620;2023-12-20T04:24:41;-1.50;99.90
36416;DHT22;22447;44.530;18.620;2023-12-20T04:27:10;-1.60;99.90
36416;DHT22;22447;44.530;18.620;2023-12-20T04:29:36;-1.70;99.90
36416;DHT22;22447;44.530;18.620;2023-12-20T04:32:02;-1.70;99.90
36416;DHT22;22447;44.530;18.620;2023-12-20T04:34:27;-1.70;99.90
36416;DHT22;22447;44.530;18.620;2023-12-20T04:36:54;-1.60;99.90
36416;DHT22;22447;44.530;18.620;2023-12-20T04:39:20;-1.50;99.90
36416;DHT22;22447;44.530;18.620;2023-12-20T04:41:45;-1.50;99.90
36416;DHT22;22447;44.530;18.620;2023-12-20T04:44:13;-1.50;99.90
36416;DHT22;22447;44.530;18.620;2023-12-20T04:46:39;-1.50;99.90
36416;DHT22;22447;44.530;18.620;2023-12-20T04:49:05;-1.50;99.90
36416;DHT22;22447;44.530;18.620;2023-12-20T04:51:34;-1.50;99.90
36416;DHT22;22447;44.530;18.620;2023-12-20T04:54:01;-1.50;99.90
36416;DHT22;22447;44.530;18.620;2023-12-20T04:56:27;-1.50;99.90
36416;DHT22;22447;44.530;18.620;2023-12-20T04:58:53;-1.60;99.90
36416;DHT22;22447;44.530;18.620;2023-12-20T05:01:19;-1.60;99.90
36416;DHT22;22447;44.530;18.620;2023-12-20T05:03:46;-1.60;99.90
36416;DHT22;22447;44.530;18.620;2023-12-20T05:06:12;-1.60;99.90
36416;DHT22;22447;44.530;18.620;2023-12-20T05:08:38;-1.60;99.90
36416;DHT22;22447;44.530;18.620;2023-12-20T05:11:04;-1.70;99.90
36416;DHT22;22447;44.530;18.620;2023-12-20T05:13:30;-1.70;99.90
36416;DHT22;22447;44.530;18.620;2023-12-20T05:15:56;-1.70;99.90
36416;DHT22;22447;44.530;18.620;2023-12-20T05:18:22;-1.80;99.90
36416;DHT22;22447;44.530;18.620;2023-12-20T05:20:50;-1.70;99.90
36416;DHT22;22447;44.530;18.620;2023-12-20T05:23:16;-1.80;99.90
36416;DHT22;22447;44.530;18.620;2023-12-20T05:25:43;-1.80;99.90
36416;DHT22;22447;44.530;18.620;2023-12-20T05:28:09;-1.80;99.90
36416;DHT22;22447;44.530;18.620;2023-12-20T05:30:35;-1.90;99.90
36416;DHT22;22447;44.530;18.620;2023-12-20T05:33:00;-1.90;99.90
36416;DHT22;22447;44.530;18.620;2023-12-20T05:35:26;-1.80;99.90
36416;DHT22;22447;44.530;18.620;2023-12-20T05:37:52;-1.80;99.90
36416;DHT22;22447;44.530;18.620;2023-12-20T05:40:18;-1.60;99.90
36416;DHT22;22447;44.530;18.620;2023-12-20T05:42:44;-1.70;99.90
36416;DHT22;22447;44.530;18.620;2023-12-20T05:45:10;-1.70;99.90
36416;DHT22;22447;44.530;18.620;2023-12-20T05:47:36;-1.60;99.90
36416;DHT22;22447;44.530;18.620;2023-12-20T05:50:02;-1.60;99.90
36416;DHT22;22447;44.530;18.620;2023-12-20T05:52:29;-1.50;99.90
36416;DHT22;22447;44.530;18.620;2023-12-20T05:54:55;-1.60;99.90
36416;DHT22;22447;44.530;18.620;2023-12-20T05:57:23;-1.60;99.90
36416;DHT22;22447;44.530;18.620;2023-12-20T05:59:49;-1.70;99.90
36416;DHT22;22447;44.530;18.620;2023-12-20T06:02:15;-1.60;99.90
36416;DHT22;22447;44.530;18.620;2023-12-20T06:04:44;-1.60;99.90
36416;DHT22;22447;44.530;18.620;2023-12-20T06:07:14;-1.70;99.90
36416;DHT22;22447;44.530;18.620;2023-12-20T06:09:40;-1.60;99.90
36416;DHT22;22447;44.530;18.620;2023-12-20T06:12:07;-1.60;99.90
36416;DHT22;22447;44.530;18.620;2023-12-20T06:14:34;-1.60;99.90
36416;DHT22;22447;44.530;18.620;2023-12-20T06:17:00;-1.60;99.90
36416;DHT22;22447;44.530;18.620;2023-12-20T06:19:27;-1.70;99.90
36416;DHT22;22447;44.530;18.620;2023-12-20T06:21:53;-1.70;99.90
36416;DHT22;22447;44.530;18.620;2023-12-20T06:24:19;-1.70;99.90
36416;DHT22;22447;44.530;18.620;2023-12-20T06:26:45;-1.70;99.90
36416;DHT22;22447;44.530;18.620;2023-12-20T06:29:11;-1.60;99.90
36416;DHT22;22447;44.530;18.620;2023-12-20T06:31:37;-1.60;99.90
36416;DHT22;22447;44.530;18.620;2023-12-20T06:34:03;-1.50;99.90
36416;DHT22;22447;44.530;18.620;2023-12-20T06:36:29;-1.50;99.90
36416;DHT22;22447;44.530;18.620;2023-12-20T06:38:55;-1.40;99.90
36416;DHT22;22447;44.530;18.620;2023-12-20T06:41:21;-1.40;99.90
36416;DHT22;22447;44.530;18.620;2023-12-20T06:43:47;-1.30;99.90
36416;DHT22;22447;44.530;18.620;2023-12-20T06:46:13;-1.40;99.90
36416;DHT22;22447;44.530;18.620;2023-12-20T06:48:39;-1.50;99.90
36416;DHT22;22447;44.530;18.620;2023-12-20T06:51:06;-1.50;99.90
36416;DHT22;22447;44.530;18.620;2023-12-20T06:53:32;-1.50;99.90
36416;DHT22;22447;44.530;18.620;2023-12-20T06:55:58;-1.50;99.90
36416;DHT22;22447;44.530;18.620;2023-12-20T06:58:24;-1.50;99.90
36416;DHT22;22447;44.530;18.620;2023-12-20T07:00:50;-1.50;99.90
36416;DHT22;22447;44.530;18.620;2023-12-20T07:03:17;-1.40;99.90
36416;DHT22;22447;44.530;18.620;2023-12-20T07:05:43;-1.40;99.90
36416;DHT22;22447;44.530;18.620;2023-12-20T07:08:09;-1.40;99.90
36416;DHT22;22447;44.530;18.620;2023-12-20T07:10:36;-1.30;99.90
36416;DHT22;22447;44.530;18.620;2023-12-20T07:13:03;-1.10;99.90
36416;DHT22;22447;44.530;18.620;2023-12-20T07:15:28;-1.00;99.90
36416;DHT22;22447;44.530;18.620;2023-12-20T07:17:55;-0.90;99.90
36416;DHT22;22447;44.530;18.620;2023-12-20T07:20:21;-0.80;99.90
36416;DHT22;22447;44.530;18.620;2023-12-20T07:22:47;-0.50;99.90
36416;DHT22;22447;44.530;18.620;2023-12-20T07:25:13;-0.10;99.90
36416;DHT22;22447;44.530;18.620;2023-12-20T07:27:38;0.80;99.90
36416;DHT22;22447;44.530;18.620;2023-12-20T07:30:05;2.20;99.90
36416;DHT22;22447;44.530;18.620;2023-12-20T07:32:31;3.00;99.90
36416;DHT22;22447;44.530;18.620;2023-12-20T07:34:57;3.70;99.90
36416;DHT22;22447;44.530;18.620;2023-12-20T07:37:23;4.30;99.90
36416;DHT22;22447;44.530;18.620;2023-12-20T07:39:49;4.80;98.80
36416;DHT22;22447;44.530;18.620;2023-12-20T07:42:15;5.70;96.60
36416;DHT22;22447;44.530;18.620;2023-12-20T07:44:41;6.70;91.20
36416;DHT22;22447;44.530;18.620;2023-12-20T07:47:07;6.90;87.70
36416;DHT22;22447;44.530;18.620;2023-12-20T07:49:33;7.10;84.40
36416;DHT22;22447;44.530;18.620;2023-12-20T07:51:59;7.00;83.70
36416;DHT22;22447;44.530;18.620;2023-12-20T07:54:25;7.50;79.20
36416;DHT22;22447;44.530;18.620;2023-12-20T07:56:51;8.20;77.30
36416;DHT22;22447;44.530;18.620;2023-12-20T07:59:17;8.80;71.00
36416;DHT22;22447;44.530;18.620;2023-12-20T08:01:43;8.50;72.80
36416;DHT22;22447;44.530;18.620;2023-12-20T08:04:09;8.60;71.60
36416;DHT22;22447;44.530;18.620;2023-12-20T08:06:34;9.10;70.00
36416;DHT22;22447;44.530;18.620;2023-12-20T08:09:00;9.20;71.00
36416;DHT22;22447;44.530;18.620;2023-12-20T08:11:26;9.80;67.30
36416;DHT22;22447;44.530;18.620;2023-12-20T08:13:52;9.40;67.40
36416;DHT22;22447;44.530;18.620;2023-12-20T08:16:18;9.30;66.50
36416;DHT22;22447;44.530;18.620;2023-12-20T08:18:44;10.10;67.30
36416;DHT22;22447;44.530;18.620;2023-12-20T08:21:10;10.00;65.40
36416;DHT22;22447;44.530;18.620;2023-12-20T08:23:37;9.90;65.60
36416;DHT22;22447;44.530;18.620;2023-12-20T08:26:07;10.30;65.00
36416;DHT22;22447;44.530;18.620;2023-12-20T08:28:33;10.70;61.50
36416;DHT22;22447;44.530;18.620;2023-12-20T08:31:00;11.20;61.30
36416;DHT22;22447;44.530;18.620;2023-12-20T08:33:26;11.60;58.90
36416;DHT22;22447;44.530;18.620;2023-12-20T08:35:52;11.80;58.90
36416;DHT22;22447;44.530;18.620;2023-12-20T08:38:18;11.70;57.40
36416;DHT22;22447;44.530;18.620;2023-12-20T08:40:44;11.50;59.00
36416;DHT22;22447;44.530;18.620;2023-12-20T08:43:10;11.90;57.60
36416;DHT22;22447;44.530;18.620;2023-12-20T08:45:36;12.30;58.70
36416;DHT22;22447;44.530;18.620;2023-12-20T08:48:02;12.60;56.40
36416;DHT22;22447;44.530;18.620;2023-12-20T08:50:29;14.00;54.40
36416;DHT22;22447;44.530;18.620;2023-12-20T08:52:55;14.00;52.20
36416;DHT22;22447;44.530;18.620;2023-12-20T08:55:21;14.00;51.90
36416;DHT22;22447;44.530;18.620;2023-12-20T08:57:47;12.80;51.30
36416;DHT22;22447;44.530;18.620;2023-12-20T09:00:13;13.00;52.00
36416;DHT22;22447;44.530;18.620;2023-12-20T09:02:39;13.40;53.00
36416;DHT22;22447;44.530;18.620;2023-12-20T09:05:05;13.90;51.60
36416;DHT22;22447;44.530;18.620;2023-12-20T09:07:31;13.60;52.70
36416;DHT22;22447;44.530;18.620;2023-12-20T09:09:58;14.30;50.80
36416;DHT22;22447;44.530;18.620;2023-12-20T09:12:24;14.30;51.70
36416;DHT22;22447;44.530;18.620;2023-12-20T09:14:51;14.90;50.10
36416;DHT22;22447;44.530;18.620;2023-12-20T09:17:18;15.60;47.70
36416;DHT22;22447;44.530;18.620;2023-12-20T09:19:45;15.60;44.70
36416;DHT22;22447;44.530;18.620;2023-12-20T09:22:11;15.00;46.30
36416;DHT22;22447;44.530;18.620;2023-12-20T09:24:37;15.10;46.60
36416;DHT22;22447;44.530;18.620;2023-12-20T09:27:04;14.90;46.70
36416;DHT22;22447;44.530;18.620;2023-12-20T09:29:31;15.10;45.10
36416;DHT22;22447;44.530;18.620;2023-12-20T09:31:57;16.40;43.70
36416;DHT22;22447;44.530;18.620;2023-12-20T09:34:23;16.70;43.50
36416;DHT22;22447;44.530;18.620;2023-12-20T09:36:49;16.40;43.40
36416;DHT22;22447;44.530;18.620;2023-12-20T09:39:16;16.10;43.50
36416;DHT22;22447;44.530;18.620;2023-12-20T09:44:24;16.30;43.30
36416;DHT22;22447;44.530;18.620;2023-12-20T09:46:50;15.70;44.80
36416;DHT22;22447;44.530;18.620;2023-12-20T09:49:18;15.90;45.40
36416;DHT22;22447;44.530;18.620;2023-12-20T09:51:46;16.00;44.90
36416;DHT22;22447;44.530;18.620;2023-12-20T09:54:16;15.40;46.50
36416;DHT22;22447;44.530;18.620;2023-12-20T09:56:43;15.60;47.10
36416;DHT22;22447;44.530;18.620;2023-12-20T09:59:09;16.30;45.50
36416;DHT22;22447;44.530;18.620;2023-12-20T10:01:35;15.70;47.30
36416;DHT22;22447;44.530;18.620;2023-12-20T10:04:06;15.60;47.00
36416;DHT22;22447;44.530;18.620;2023-12-20T10:06:41;15.30;48.00
36416;DHT22;22447;44.530;18.620;2023-12-20T10:09:12;14.90;50.20
36416;DHT22;22447;44.530;18.620;2023-12-20T10:11:38;15.70;47.60
36416;DHT22;22447;44.530;18.620;2023-12-20T10:14:10;15.90;47.40
36416;DHT22;22447;44.530;18.620;2023-12-20T10:16:36;16.60;46.30
36416;DHT22;22447;44.530;18.620;2023-12-20T10:19:02;17.30;44.80
36416;DHT22;22447;44.530;18.620;2023-12-20T10:21:28;17.30;44.20
36416;DHT22;22447;44.530;18.620;2023-12-20T10:23:57;17.10;45.00
36416;DHT22;22447;44.530;18.620;2023-12-20T10:26:25;17.60;43.70
36416;DHT22;22447;44.530;18.620;2023-12-20T10:28:53;17.70;44.00
36416;DHT22;22447;44.530;18.620;2023-12-20T10:31:29;18.00;41.90
36416;DHT22;22447;44.530;18.620;2023-12-20T10:33:59;17.60;44.10
36416;DHT22;22447;44.530;18.620;2023-12-20T10:36:26;17.90;41.90
36416;DHT22;22447;44.530;18.620;2023-12-20T10:38:54;17.40;42.40
36416;DHT22;22447;44.530;18.620;2023-12-20T10:41:26;17.60;41.60
36416;DHT22;22447;44.530;18.620;2023-12-20T10:44:00;17.80;42.40
36416;DHT22;22447;44.530;18.620;2023-12-20T10:46:28;18.20;38.70
36416;DHT22;22447;44.530;18.620;2023-12-20T10:48:56;18.00;39.80
36416;DHT22;22447;44.530;18.620;2023-12-20T10:51:23;18.60;38.00
36416;DHT22;22447;44.530;18.620;2023-12-20T10:53:52;19.50;36.20
36416;DHT22;22447;44.530;18.620;2023-12-20T10:56:18;19.90;34.10
36416;DHT22;22447;44.530;18.620;2023-12-20T10:58:48;20.20;34.00
36416;DHT22;22447;44.530;18.620;2023-12-20T11:01:16;19.70;33.50
36416;DHT22;22447;44.530;18.620;2023-12-20T11:03:53;19.40;34.20
36416;DHT22;22447;44.530;18.620;2023-12-20T11:06:54;20.00;34.00
36416;DHT22;22447;44.530;18.620;2023-12-20T11:09:25;19.20;34.40
36416;DHT22;22447;44.530;18.620;2023-12-20T11:12:18;19.70;34.40
36416;DHT22;22447;44.530;18.620;2023-12-20T11:14:47;20.10;32.70
36416;DHT22;22447;44.530;18.620;2023-12-20T11:17:13;20.20;32.10
36416;DHT22;22447;44.530;18.620;2023-12-20T11:22:22;19.90;31.00
36416;DHT22;22447;44.530;18.620;2023-12-20T11:24:51;20.60;29.20
36416;DHT22;22447;44.530;18.620;2023-12-20T11:27:20;20.40;29.60
36416;DHT22;22447;44.530;18.620;2023-12-20T11:29:56;20.00;30.40
36416;DHT22;22447;44.530;18.620;2023-12-20T11:34:58;20.00;30.00
36416;DHT22;22447;44.530;18.620;2023-12-20T11:37:30;20.20;29.90
36416;DHT22;22447;44.530;18.620;2023-12-20T11:40:07;20.10;30.00
36416;DHT22;22447;44.530;18.620;2023-12-20T11:42:42;19.90;29.90
36416;DHT22;22447;44.530;18.620;2023-12-20T11:45:09;19.90;29.70
36416;DHT22;22447;44.530;18.620;2023-12-20T11:47:36;19.50;30.70
36416;DHT22;22447;44.530;18.620;2023-12-20T11:50:02;18.60;31.50
36416;DHT22;22447;44.530;18.620;2023-12-20T11:52:29;18.40;32.90
36416;DHT22;22447;44.530;18.620;2023-12-20T11:54:56;17.70;33.20
36416;DHT22;22447;44.530;18.620;2023-12-20T11:57:22;16.80;35.70
36416;DHT22;22447;44.530;18.620;2023-12-20T11:59:49;16.70;37.30
36416;DHT22;22447;44.530;18.620;2023-12-20T12:02:15;16.10;38.00
36416;DHT22;22447;44.530;18.620;2023-12-20T12:04:43;15.50;40.20
36416;DHT22;22447;44.530;18.620;2023-12-20T12:07:09;15.80;40.90
36416;DHT22;22447;44.530;18.620;2023-12-20T12:09:35;16.60;39.10
36416;DHT22;22447;44.530;18.620;2023-12-20T12:12:01;17.20;37.00
36416;DHT22;22447;44.530;18.620;2023-12-20T12:14:27;17.50;36.00
36416;DHT22;22447;44.530;18.620;2023-12-20T12:16:53;17.50;36.70
36416;DHT22;22447;44.530;18.620;2023-12-20T12:19:21;17.20;35.90
36416;DHT22;22447;44.530;18.620;2023-12-20T12:21:47;17.00;36.40
36416;DHT22;22447;44.530;18.620;2023-12-20T12:24:13;16.50;36.90
36416;DHT22;22447;44.530;18.620;2023-12-20T12:26:39;16.60;37.50
36416;DHT22;22447;44.530;18.620;2023-12-20T12:29:07;16.60;36.50
36416;DHT22;22447;44.530;18.620;2023-12-20T12:31:33;17.00;37.20
36416;DHT22;22447;44.530;18.620;2023-12-20T12:33:59;16.80;36.40
36416;DHT22;22447;44.530;18.620;2023-12-20T12:36:25;16.60;36.90
36416;DHT22;22447;44.530;18.620;2023-12-20T12:38:51;16.70;37.20
36416;DHT22;22447;44.530;18.620;2023-12-20T12:41:19;17.00;35.10
36416;DHT22;22447;44.530;18.620;2023-12-20T12:43:45;16.90;36.00
36416;DHT22;22447;44.530;18.620;2023-12-20T12:46:11;17.10;35.40
36416;DHT22;22447;44.530;18.620;2023-12-20T12:48:37;17.30;35.00
36416;DHT22;22447;44.530;18.620;2023-12-20T12:51:03;17.40;34.70
36416;DHT22;22447;44.530;18.620;2023-12-20T12:53:29;17.40;34.30
36416;DHT22;22447;44.530;18.620;2023-12-20T12:55:55;17.50;34.30
36416;DHT22;22447;44.530;18.620;2023-12-20T12:58:21;16.90;35.30
36416;DHT22;22447;44.530;18.620;2023-12-20T13:00:48;16.40;36.60
36416;DHT22;22447;44.530;18.620;2023-12-20T13:03:13;15.70;38.10
36416;DHT22;22447;44.530;18.620;2023-12-20T13:05:39;15.50;39.60
36416;DHT22;22447;44.530;18.620;2023-12-20T13:08:06;15.80;38.40
36416;DHT22;22447;44.530;18.620;2023-12-20T13:10:32;15.80;39.20
36416;DHT22;22447;44.530;18.620;2023-12-20T13:12:57;15.90;39.60
36416;DHT22;22447;44.530;18.620;2023-12-20T13:15:23;16.00;38.40
36416;DHT22;22447;44.530;18.620;2023-12-20T13:17:49;16.20;37.70
36416;DHT22;22447;44.530;18.620;2023-12-20T13:20:16;15.80;39.30
36416;DHT22;22447;44.530;18.620;2023-12-20T13:22:42;15.80;40.50
36416;DHT22;22447;44.530;18.620;2023-12-20T13:25:07;15.80;40.40
36416;DHT22;22447;44.530;18.620;2023-12-20T13:27:33;16.20;39.20
36416;DHT22;22447;44.530;18.620;2023-12-20T13:30:00;16.20;38.10
36416;DHT22;22447;44.530;18.620;2023-12-20T13:32:26;15.80;39.50
36416;DHT22;22447;44.530;18.620;2023-12-20T13:34:51;16.10;39.40
36416;DHT22;22447;44.530;18.620;2023-12-20T13:37:17;15.80;40.50
36416;DHT22;22447;44.530;18.620;2023-12-20T13:39:44;15.30;41.50
36416;DHT22;22447;44.530;18.620;2023-12-20T13:42:10;15.40;41.50
36416;DHT22;22447;44.530;18.620;2023-12-20T13:44:35;15.30;41.60
36416;DHT22;22447;44.530;18.620;2023-12-20T13:47:01;14.70;42.50
36416;DHT22;22447;44.530;18.620;2023-12-20T13:49:28;14.50;43.40
36416;DHT22;22447;44.530;18.620;2023-12-20T13:51:54;14.60;43.40
36416;DHT22;22447;44.530;18.620;2023-12-20T13:54:23;14.60;43.70
36416;DHT22;22447;44.530;18.620;2023-12-20T13:56:49;14.70;42.90
36416;DHT22;22447;44.530;18.620;2023-12-20T13:59:15;15.00;43.40
36416;DHT22;22447;44.530;18.620;2023-12-20T14:01:42;15.60;42.20
36416;DHT22;22447;44.530;18.620;2023-12-20T14:04:07;14.90;43.30
36416;DHT22;22447;44.530;18.620;2023-12-20T14:06:33;15.20;43.40
36416;DHT22;22447;44.530;18.620;2023-12-20T14:08:59;15.70;42.80
36416;DHT22;22447;44.530;18.620;2023-12-20T14:11:26;15.90;42.30
36416;DHT22;22447;44.530;18.620;2023-12-20T14:13:52;16.10;40.60
36416;DHT22;22447;44.530;18.620;2023-12-20T14:16:18;15.70;41.60
36416;DHT22;22447;44.530;18.620;2023-12-20T14:18:44;15.50;43.20
36416;DHT22;22447;44.530;18.620;2023-12-20T14:21:10;15.80;42.30
36416;DHT22;22447;44.530;18.620;2023-12-20T14:23:36;16.20;40.10
36416;DHT22;22447;44.530;18.620;2023-12-20T14:26:02;15.80;41.70
36416;DHT22;22447;44.530;18.620;2023-12-20T14:28:29;15.50;42.80
36416;DHT22;22447;44.530;18.620;2023-12-20T14:30:54;15.40;43.30
36416;DHT22;22447;44.530;18.620;2023-12-20T14:33:22;15.10;44.80
36416;DHT22;22447;44.530;18.620;2023-12-20T14:35:48;14.40;45.40
36416;DHT22;22447;44.530;18.620;2023-12-20T14:38:13;13.60;48.80
36416;DHT22;22447;44.530;18.620;2023-12-20T14:40:40;13.00;51.10
36416;DHT22;22447;44.530;18.620;2023-12-20T14:43:06;12.60;51.80
36416;DHT22;22447;44.530;18.620;2023-12-20T14:45:32;12.20;53.40
36416;DHT22;22447;44.530;18.620;2023-12-20T14:47:58;12.00;54.20
36416;DHT22;22447;44.530;18.620;2023-12-20T14:50:24;11.70;54.90
36416;DHT22;22447;44.530;18.620;2023-12-20T14:52:51;11.30;56.40
36416;DHT22;22447;44.530;18.620;2023-12-20T14:55:19;10.90;57.80
36416;DHT22;22447;44.530;18.620;2023-12-20T14:57:47;10.80;59.10
36416;DHT22;22447;44.530;18.620;2023-12-20T15:00:13;10.80;59.10
36416;DHT22;22447;44.530;18.620;2023-12-20T15:02:42;10.60;57.70
36416;DHT22;22447;44.530;18.620;2023-12-20T15:05:08;10.60;56.50
36416;DHT22;22447;44.530;18.620;2023-12-20T15:07:35;10.40;56.30
36416;DHT22;22447;44.530;18.620;2023-12-20T15:10:02;10.40;56.30
36416;DHT22;22447;44.530;18.620;2023-12-20T15:12:28;10.30;57.00
36416;DHT22;22447;44.530;18.620;2023-12-20T15:14:54;10.20;57.10
36416;DHT22;22447;44.530;18.620;2023-12-20T15:17:20;10.00;57.00
36416;DHT22;22447;44.530;18.620;2023-12-20T15:19:45;9.90;56.40
36416;DHT22;22447;44.530;18.620;2023-12-20T15:22:11;9.70;55.80